Time;durP1;ratioP1;P1;durP2;ratioP2;P2;SDS_P1;SDS_P2;PMS_P1;PMS_P2;Temp;Humidity;BMP_temperature;BMP_pressure;BME280_temperature;BME280_humidity;BME280_pressure;Samples;Min_cycle;Max_cycle;Signal;HPM_P1;HPM_P2
2021/06/20 00:00:11;;;;;;;9.90;9.00;;;;;;;;;;5035078;28;20017;-62
2021/06/20 00:02:37;;;;;;;14.88;9.18;;;;;;;;;;5035105;28;20021;-65
2021/06/20 00:05:05;;;;;;;9.77;8.88;;;;;;;;;;5034833;28;20181;-62
2021/06/20 00:07:31;;;;;;;12.10;8.85;;;;;;;;;;5035197;28;20026;-62
2021/06/20 00:09:57;;;;;;;12.70;9.30;;;;;;;;;;5034878;28;20029;-62
2021/06/20 00:12:23;;;;;;;11.60;9.07;;;;;;;;;;5034847;28;20021;-62
2021/06/20 00:14:49;;;;;;;11.60;9.05;;;;;;;;;;5034710;28;20026;-68
2021/06/20 00:17:16;;;;;;;13.43;8.88;;;;;;;;;;5034751;28;20026;-63
2021/06/20 00:19:42;;;;;;;10.35;9.35;;;;;;;;;;5034793;28;20446;-63
2021/06/20 00:22:08;;;;;;;10.45;8.52;;;;;;;;;;5034682;28;20837;-63
2021/06/20 00:24:34;;;;;;;13.68;8.63;;;;;;;;;;5034559;28;20025;-65
2021/06/20 00:27:00;;;;;;;13.90;9.70;;;;;;;;;;5034635;28;20021;-66
2021/06/20 00:29:26;;;;;;;11.73;9.00;;;;;;;;;;5034457;28;20058;-65
2021/06/20 00:31:53;;;;;;;13.07;9.00;;;;;;;;;;5034584;28;20038;-65
2021/06/20 00:34:20;;;;;;;14.25;9.40;;;;;;;;;;5034486;28;20507;-70
2021/06/20 00:36:46;;;;;;;10.88;9.75;;;;;;;;;;5034336;28;20467;-63
2021/06/20 00:39:12;;;;;;;9.63;8.40;;;;;;;;;;5034447;28;20407;-69
2021/06/20 00:41:38;;;;;;;15.13;8.35;;;;;;;;;;5020356;28;20029;-63
2021/06/20 00:44:04;;;;;;;17.08;8.77;;;;;;;;;;5034346;28;20502;-66
2021/06/20 00:46:30;;;;;;;12.48;8.93;;;;;;;;;;5034204;28;20171;-66
2021/06/20 00:48:57;;;;;;;12.07;9.38;;;;;;;;;;5034363;28;20024;-63
2021/06/20 00:51:23;;;;;;;9.90;8.90;;;;;;;;;;5034007;28;20490;-62
2021/06/20 00:53:49;;;;;;;12.25;8.30;;;;;;;;;;5034104;28;20063;-63
2021/06/20 00:56:15;;;;;;;11.55;8.38;;;;;;;;;;5034062;28;20430;-62
2021/06/20 00:58:43;;;;;;;9.15;8.25;;;;;;;;;;5033913;28;20033;-62
2021/06/20 01:01:09;;;;;;;16.70;9.02;;;;;;;;;;5022593;28;20022;-62
2021/06/20 01:03:35;;;;;;;9.90;8.20;;;;;;;;;;5031571;28;20087;-61
2021/06/20 01:06:01;;;;;;;13.18;8.18;;;;;;;;;;5033656;28;20048;-62
2021/06/20 01:08:28;;;;;;;12.80;8.85;;;;;;;;;;5033403;28;20025;-62
2021/06/20 01:10:54;;;;;;;11.57;8.20;;;;;;;;;;5033775;28;20025;-62
2021/06/20 01:13:20;;;;;;;8.98;8.07;;;;;;;;;;5033834;28;20083;-69
2021/06/20 01:15:49;;;;;;;10.35;8.65;;;;;;;;;;5033552;28;20167;-62
2021/06/20 01:18:15;;;;;;;12.93;8.70;;;;;;;;;;5033618;28;20055;-61
2021/06/20 01:20:42;;;;;;;9.30;8.40;;;;;;;;;;5033332;28;20491;-63
2021/06/20 01:23:09;;;;;;;12.93;9.20;;;;;;;;;;5033473;28;20475;-62
2021/06/20 01:25:36;;;;;;;13.05;8.75;;;;;;;;;;5033427;28;20021;-62
2021/06/20 01:28:08;;;;;;;10.13;8.57;;;;;;;;;;5033437;28;20041;-62
2021/06/20 01:30:35;;;;;;;14.27;8.15;;;;;;;;;;5033410;28;20013;-62
2021/06/20 01:33:02;;;;;;;10.45;8.73;;;;;;;;;;5033637;28;20029;-61
2021/06/20 01:35:29;;;;;;;12.40;8.57;;;;;;;;;;5033252;28;20448;-62
2021/06/20 01:37:55;;;;;;;11.00;8.80;;;;;;;;;;5033050;28;20041;-62
2021/06/20 01:40:23;;;;;;;14.35;9.18;;;;;;;;;;5033220;28;20504;-62
2021/06/20 01:42:49;;;;;;;11.57;8.60;;;563.90;2432.00;;;;;;5033023;28;20542;-62
2021/06/20 01:45:19;;;;;;;9.65;8.55;;;563.70;2432.00;;;;;;5033200;28;20033;-62
2021/06/20 01:47:46;;;;;;;9.57;8.37;;;;;;;;;;5033166;28;20037;-62
2021/06/20 01:50:14;;;;;;;9.90;9.00;;;;;;;;;;5032841;28;20254;-62
2021/06/20 01:52:40;;;;;;;15.07;9.18;;;;;;;;;;5033069;28;20108;-63
2021/06/20 01:55:07;;;;;;;11.55;8.20;;;;;;;;;;5033053;28;20364;-63
2021/06/20 01:57:35;;;;;;;10.63;9.02;;;;;;;;;;5033082;28;20531;-64
2021/06/20 02:00:09;;;;;;;11.90;8.45;;;588.80;2380.80;;;;;;5032984;28;20026;-65
2021/06/20 02:02:35;;;;;;;11.18;8.55;;;564.10;2380.80;;;;;;5031859;28;20078;-63
2021/06/20 02:05:01;;;;;;;10.77;8.15;;;588.90;2355.20;;;;;;5032819;28;20041;-62
2021/06/20 02:07:27;;;;;;;10.02;8.55;;;;;;;;;;5032784;28;20506;-64
2021/06/20 02:09:54;;;;;;;12.27;7.93;;;;;;;;;;5032794;28;20065;-62
2021/06/20 02:12:21;;;;;;;11.10;7.85;;;;;;;;;;5032584;28;20108;-63
2021/06/20 02:14:47;;;;;;;10.35;8.13;;;;;;;;;;5032533;28;20148;-61
2021/06/20 02:17:22;;;;;;;16.75;8.50;;;;;;;;;;5032509;28;20079;-73
2021/06/20 02:19:48;;;;;;;10.48;8.30;;;;;;;;;;5032199;28;20037;-63
2021/06/20 02:22:14;;;;;;;10.35;7.80;;;;;;;;;;5032582;28;20025;-63
2021/06/20 02:24:40;;;;;;;11.52;8.13;;;;;;;;;;5032439;28;20026;-65
2021/06/20 02:27:09;;;;;;;9.50;7.93;;;;;;;;;;5032513;28;20487;-63
2021/06/20 02:29:36;;;;;;;9.75;8.73;;;;;;;;;;5032481;28;20480;-65
2021/06/20 02:32:02;;;;;;;11.10;8.02;;;;;;;;;;5032402;28;20033;-63
2021/06/20 02:34:29;;;;;;;10.02;7.93;;;;;;;;;;5032329;28;20037;-62
2021/06/20 02:36:55;;;;;;;10.20;8.10;;;;;;;;;;5032430;28;20096;-63
2021/06/20 02:39:21;;;;;;;9.27;8.27;;;;;;;;;;5032279;28;20021;-64
2021/06/20 02:41:50;;;;;;;9.93;7.72;;;;;;;;;;5032461;28;20026;-64
2021/06/20 02:44:16;;;;;;;9.93;8.18;;;;;;;;;;5032467;28;20022;-64
2021/06/20 02:46:42;;;;;;;8.93;8.02;;;;;;;;;;5032187;28;20091;-63
2021/06/20 02:49:08;;;;;;;10.05;7.88;;;;;;;;;;5032417;28;20040;-63
2021/06/20 02:51:34;;;;;;;13.00;8.10;;;;;;;;;;5032285;28;20030;-62
2021/06/20 02:54:00;;;;;;;12.10;8.20;;;;;;;;;;5032223;28;20052;-63
2021/06/20 02:56:26;;;;;;;11.05;8.40;;;;;;;;;;5032192;28;20034;-62
2021/06/20 02:58:52;;;;;;;13.15;8.38;;;;;;;;;;5032212;28;20033;-63
2021/06/20 03:01:18;;;;;;;9.23;7.53;;;563.80;2432.00;;;;;;5032287;28;20391;-62
2021/06/20 03:03:44;;;;;;;8.80;7.75;;;;;;;;;;5032022;28;20025;-62
2021/06/20 03:06:11;;;;;;;8.98;8.07;;;563.60;2432.00;;;;;;5032260;28;20022;-66
2021/06/20 03:08:37;;;;;;;13.27;7.78;;;;;;;;;;5032023;28;20022;-63
2021/06/20 03:11:03;;;;;;;10.93;8.07;;;;;;;;;;5032088;28;20375;-66
2021/06/20 03:13:30;;;;;;;11.10;7.93;;;;;;;;;;5030703;28;20029;-62
2021/06/20 03:15:56;;;;;;;11.38;7.47;;;;;;;;;;5019458;28;20103;-62
2021/06/20 03:18:22;;;;;;;10.45;7.88;;;;;;;;;;5031915;28;20041;-61
2021/06/20 03:20:48;;;;;;;11.95;8.00;;;;;;;;;;5031969;28;20017;-63
2021/06/20 03:23:14;;;;;;;9.15;7.70;;;;;;;;;;5032060;28;20082;-62
2021/06/20 03:25:41;;;;;;;11.95;7.85;;;;;;;;;;5031719;28;20410;-61
2021/06/20 03:28:07;;;;;;;10.05;8.93;;;;;;;;;;5032070;28;20087;-62
2021/06/20 03:30:34;;;;;;;11.88;8.30;;;;;;;;;;5031953;28;20025;-62
2021/06/20 03:33:00;;;;;;;10.32;8.60;;;;;;;;;;5035454;28;20021;-62
2021/06/20 03:35:27;;;;;;;8.82;7.85;;;;;;;;;;5035705;28;20021;-61
2021/06/20 03:37:53;;;;;;;10.82;7.15;;;;;;;;;;5035383;28;20029;-62
2021/06/20 03:40:19;;;;;;;14.18;8.10;;;;;;;;;;5035527;28;20037;-62
2021/06/20 03:42:45;;;;;;;9.50;7.13;;;;;;;;;;5035465;28;20025;-61
2021/06/20 03:45:11;;;;;;;16.77;8.00;;;;;;;;;;5035511;28;20471;-62
2021/06/20 03:47:38;;;;;;;9.25;7.40;;;;;;;;;;5035534;28;20017;-62
2021/06/20 03:50:06;;;;;;;11.43;7.90;;;;;;;;;;5035231;28;20029;-61
2021/06/20 03:52:32;;;;;;;9.25;7.82;;;;;;;;;;5035590;28;20431;-64
2021/06/20 03:54:58;;;;;;;12.18;7.68;;;;;;;;;;5035171;28;21973;-63
2021/06/20 03:57:24;;;;;;;12.38;7.38;;;;;;;;;;5035279;28;20038;-63
2021/06/20 03:59:50;;;;;;;10.05;7.07;;;;;;;;;;5035076;28;20028;-64
2021/06/20 04:02:17;;;;;;;10.63;7.65;;;;;;;;;;5035204;28;20518;-62
2021/06/20 04:04:43;;;;;;;8.77;6.80;;;;;;;;;;5035299;28;20108;-63
2021/06/20 04:07:12;;;;;;;10.05;7.88;;;;;;;;;;5034944;28;20446;-62
2021/06/20 04:09:38;;;;;;;14.73;8.20;;;;;;;;;;5035227;28;20414;-64
2021/06/20 04:12:05;;;;;;;9.57;8.00;;;;;;;;;;5034899;28;20021;-63
2021/06/20 04:14:31;;;;;;;13.55;8.20;;;;;;;;;;5035060;28;20472;-63
2021/06/20 04:16:57;;;;;;;12.98;7.55;;;;;;;;;;5034472;28;20057;-63
2021/06/20 04:19:23;;;;;;;14.98;7.50;;;;;;;;;;5034732;28;20060;-63
2021/06/20 04:21:50;;;;;;;12.88;7.60;;;;;;;;;;5034811;28;20025;-63
2021/06/20 04:24:16;;;;;;;9.65;7.75;;;;;;;;;;5034599;28;20025;-62
2021/06/20 04:26:42;;;;;;;8.60;7.43;;;;;;;;;;5034708;28;20053;-63
2021/06/20 04:29:09;;;;;;;10.85;7.40;;;;;;;;;;5034527;28;20361;-62
2021/06/20 04:31:35;;;;;;;11.63;7.95;;;;;;;;;;5034920;28;20095;-64
2021/06/20 04:34:01;;;;;;;10.23;7.60;;;;;;;;;;5034532;28;20028;-64
2021/06/20 04:36:27;;;;;;;9.35;7.93;;;;;;;;;;5034512;28;20025;-63
2021/06/20 04:38:54;;;;;;;12.07;8.73;;;;;;;;;;5034370;28;20047;-63
2021/06/20 04:41:22;;;;;;;9.98;8.75;;;;;;;;;;5034520;28;20049;-63
2021/06/20 04:43:59;;;;;;;11.68;7.95;;;589.20;2227.20;;;;;;5034187;28;20021;-61
2021/06/20 04:46:32;;;;;;;8.25;7.45;;;589.10;2227.20;;;;;;5034211;28;20038;-61
2021/06/20 04:49:17;;;;;;;7.93;7.20;;;589.20;2227.20;;;;;;5034275;28;20075;-61
2021/06/20 04:51:42;;;;;;;9.98;7.63;;;589.20;2252.80;;;;;;5034158;28;20534;-61
2021/06/20 04:54:10;;;;;;;13.02;7.15;;;589.30;2227.20;;;;;;5034165;28;20025;-60
2021/06/20 04:56:37;;;;;;;9.32;7.43;;;589.30;2227.20;;;;;;5034207;28;20107;-61
2021/06/20 04:59:04;;;;;;;10.27;7.63;;;589.30;2227.20;;;;;;5033777;28;20033;-61
2021/06/20 05:01:30;;;;;;;11.77;7.43;;;589.30;2201.60;;;;;;5034094;28;20018;-63
2021/06/20 05:03:56;;;;;;;10.18;7.47;;;589.30;2227.20;;;;;;5034005;28;20040;-62
2021/06/20 05:06:22;;;;;;;8.52;6.85;;;589.50;2201.60;;;;;;5034214;28;20036;-63
2021/06/20 05:08:48;;;;;;;9.43;6.72;;;589.40;2201.60;;;;;;5033834;28;20021;-63
2021/06/20 05:11:14;;;;;;;9.40;6.95;;;589.40;2227.20;;;;;;5033903;28;20820;-62
2021/06/20 05:13:40;;;;;;;9.20;7.22;;;589.60;2227.20;;;;;;5033736;28;20172;-63
2021/06/20 05:16:06;;;;;;;8.73;7.15;;;589.70;2176.00;;;;;;5033434;28;20049;-63
2021/06/20 05:18:33;;;;;;;11.63;8.05;;;;;;;;;;5033505;28;20056;-62
2021/06/20 05:20:59;;;;;;;10.52;7.03;;;614.40;2176.00;;;;;;5033741;28;20022;-61
2021/06/20 05:23:25;;;;;;;10.55;7.47;;;589.70;2176.00;;;;;;5033535;28;20443;-61
2021/06/20 05:25:51;;;;;;;7.82;6.97;;;589.70;2176.00;;;;;;5033419;28;20048;-61
2021/06/20 05:28:17;;;;;;;11.52;6.95;;;614.50;2176.00;;;;;;5033427;28;20029;-63
2021/06/20 05:30:45;;;;;;;8.85;6.78;;;614.50;2150.40;;;;;;5033344;28;20022;-63
2021/06/20 05:33:13;;;;;;;9.70;7.15;;;614.60;2150.40;;;;;;5033637;28;20448;-62
2021/06/20 05:35:39;;;;;;;8.80;6.75;;;614.70;2124.80;;;;;;5033402;28;20057;-64
2021/06/20 05:38:05;;;;;;;9.02;7.85;;;614.70;2124.80;;;;;;5033196;28;20061;-63
2021/06/20 05:40:31;;;;;;;11.00;7.35;;;614.80;2099.20;;;;;;5033255;28;20024;-62
2021/06/20 05:42:56;;;;;;;11.70;8.80;;;614.80;2073.60;;;;;;5033140;28;20033;-64
2021/06/20 05:45:22;;;;;;;8.10;7.28;;;614.90;2073.60;;;;;;5033311;28;20036;-67
2021/06/20 05:47:48;;;;;;;12.57;7.20;;;614.90;2099.20;;;;;;5033407;28;20028;-62
2021/06/20 05:50:13;;;;;;;8.88;7.97;;;614.90;2099.20;;;;;;5033149;28;20451;-65
2021/06/20 05:52:39;;;;;;;15.30;9.23;;;614.90;2073.60;;;;;;5033249;28;20490;-63
2021/06/20 05:55:07;;;;;;;10.52;8.02;;;615.10;2073.60;;;;;;5031991;28;20024;-62
2021/06/20 05:57:33;;;;;;;7.88;7.07;;;;;;;;;;5033033;28;20030;-64
2021/06/20 05:59:59;;;;;;;8.63;7.78;;;;;;;;;;5032865;28;20021;-62
2021/06/20 06:02:25;;;;;;;11.88;7.80;;;;;;;;;;5033085;28;20100;-62
2021/06/20 06:04:51;;;;;;;8.75;7.72;;;;;;;;;;5032917;28;20032;-62
2021/06/20 06:07:17;;;;;;;9.65;7.78;;;;;;;;;;5032880;28;20018;-62
2021/06/20 06:09:43;;;;;;;10.25;7.57;;;;;;;;;;5033081;28;20028;-63
2021/06/20 06:12:09;;;;;;;8.60;7.40;;;;;;;;;;5032688;28;20537;-62
2021/06/20 06:14:36;;;;;;;10.40;8.23;;;;;;;;;;5032733;28;20029;-62
2021/06/20 06:17:02;;;;;;;12.50;7.80;;;;;;;;;;5032338;28;20064;-62
2021/06/20 06:19:28;;;;;;;14.93;8.48;;;;;;;;;;5032764;28;20030;-62
2021/06/20 06:21:54;;;;;;;9.27;7.43;;;;;;;;;;5031295;28;20362;-62
2021/06/20 06:24:20;;;;;;;11.82;7.97;;;;;;;;;;5032655;28;20056;-63
2021/06/20 06:26:46;;;;;;;8.73;7.80;;;;;;;;;;5032358;28;20124;-63
2021/06/20 06:29:12;;;;;;;12.73;8.80;;;;;;;;;;5030690;28;20048;-62
2021/06/20 06:31:41;;;;;;;8.77;7.47;;;;;;;;;;5012702;28;20027;-61
2021/06/20 06:34:07;;;;;;;10.32;8.80;;;;;;;;;;5028243;28;20395;-60
2021/06/20 06:36:34;;;;;;;11.07;8.25;;;;;;;;;;5019987;28;20104;-59
2021/06/20 06:39:00;;;;;;;12.35;7.57;;;;;;;;;;5029784;28;20029;-67
2021/06/20 06:41:26;;;;;;;12.82;7.45;;;;;;;;;;5027014;28;20172;-65
2021/06/20 06:43:52;;;;;;;8.88;7.40;;;665.80;1817.60;;;;;;5027287;28;20026;-60
2021/06/20 06:46:17;;;;;;;12.55;8.48;;;665.70;1817.60;;;;;;5020815;28;20469;-58
2021/06/20 06:48:43;;;;;;;11.50;8.02;;;665.90;1817.60;;;;;;5029025;28;20029;-59
2021/06/20 06:51:09;;;;;;;36.20;22.60;;;665.90;1817.60;;;;;;5027068;28;20026;-59
2021/06/20 06:53:34;;;;;;;27.17;19.00;;;665.90;1817.60;;;;;;5030461;28;20424;-60
2021/06/20 06:56:00;;;;;;;21.25;16.02;;;666.00;1817.60;;;;;;5020617;28;20072;-60
2021/06/20 06:58:26;;;;;;;27.77;19.10;;;666.00;1817.60;;;;;;5016269;28;20183;-58
2021/06/20 07:00:52;;;;;;;17.50;12.25;;;666.20;1766.40;;;;;;5014381;28;20093;-58
2021/06/20 07:03:17;;;;;;;32.90;20.77;;;666.20;1792.00;;;;;;5016584;28;20026;-59
2021/06/20 07:05:43;;;;;;;23.92;14.35;;;;;;;;;;5014785;28;20018;-59
2021/06/20 07:08:11;;;;;;;19.65;13.90;;;;;;;;;;5025383;28;20519;-58
2021/06/20 07:10:37;;;;;;;21.08;13.80;;;;;;;;;;5026033;28;20071;-60
2021/06/20 07:13:03;;;;;;;16.73;12.50;;;;;;;;;;5035235;28;20029;-60
2021/06/20 07:15:30;;;;;;;18.85;12.55;;;;;;;;;;5026249;28;20164;-62
2021/06/20 07:17:56;;;;;;;19.05;14.23;;;;;;;;;;5028301;28;20030;-62
2021/06/20 07:20:23;;;;;;;34.85;20.58;;;;;;;;;;5028226;28;20028;-63
2021/06/20 07:22:50;;;;;;;38.05;25.40;;;;;;;;;;5029572;28;20494;-59
2021/06/20 07:25:19;;;;;;;44.20;31.45;;;;;;;;;;5033141;28;20024;-59
2021/06/20 07:27:45;;;;;;;113.53;77.43;;;;;;;;;;5031593;28;20068;-59
2021/06/20 07:30:13;;;;;;;40.13;28.27;;;;;;;;;;5035316;28;20135;-61
2021/06/20 07:32:39;;;;;;;25.55;20.63;;;;;;;;;;5034451;28;20029;-61
2021/06/20 07:35:06;;;;;;;17.08;13.00;;;;;;;;;;5028928;28;20182;-60
2021/06/20 07:37:33;;;;;;;50.22;38.95;;;;;;;;;;5033279;28;20022;-60
2021/06/20 07:39:59;;;;;;;67.43;49.75;;;;;;;;;;5031688;28;20097;-63
2021/06/20 07:42:25;;;;;;;79.90;60.70;;;;;;;;;;5033125;28;20072;-63
2021/06/20 07:44:51;;;;;;;21.17;15.18;;;;;;;;;;5030083;28;20476;-62
2021/06/20 07:47:18;;;;;;;49.40;34.33;;;;;;;;;;5031894;28;20018;-60
2021/06/20 07:49:44;;;;;;;17.85;12.27;;;;;;;;;;5020461;28;20484;-63
2021/06/20 07:52:10;;;;;;;12.05;7.38;;;;;;;;;;5022461;28;20391;-60
2021/06/20 07:54:38;;;;;;;31.30;25.35;;;;;;;;;;5031987;28;20109;-62
2021/06/20 07:57:04;;;;;;;15.73;11.07;;;;;;;;;;5029999;28;20104;-62
2021/06/20 07:59:30;;;;;;;26.85;20.40;;;;;;;;;;5032734;28;20072;-64
2021/06/20 08:01:56;;;;;;;18.60;13.27;;;;;;;;;;5022076;28;20029;-63
2021/06/20 08:04:22;;;;;;;18.88;13.73;;;;;;;;;;5034175;28;20039;-62
2021/06/20 08:06:48;;;;;;;20.10;14.07;;;;;;;;;;5031154;28;20076;-66
2021/06/20 08:09:14;;;;;;;25.27;19.10;;;;;;;;;;5031647;28;20029;-61
2021/06/20 08:11:40;;;;;;;10.82;8.25;;;;;;;;;;5031948;28;20022;-62
2021/06/20 08:14:06;;;;;;;11.60;8.85;;;;;;;;;;5029101;28;20117;-59
2021/06/20 08:16:33;;;;;;;17.00;14.65;;;;;;;;;;5033037;28;20053;-60
2021/06/20 08:18:59;;;;;;;14.50;8.88;;;;;;;;;;5032195;28;20033;-66
2021/06/20 08:21:25;;;;;;;24.42;19.95;;;;;;;;;;5034193;28;20025;-65
2021/06/20 08:23:51;;;;;;;29.10;26.13;;;;;;;;;;5026446;28;20026;-64
2021/06/20 08:26:17;;;;;;;21.00;18.83;;;;;;;;;;5026140;28;20014;-64
2021/06/20 08:28:43;;;;;;;20.67;17.80;;;;;;;;;;5030525;28;20033;-63
2021/06/20 08:31:10;;;;;;;20.15;17.25;;;;;;;;;;5034358;28;20459;-63
2021/06/20 08:33:35;;;;;;;20.40;15.30;;;717.20;1408.00;;;;;;5034644;28;20029;-62
2021/06/20 08:36:01;;;;;;;16.58;13.35;;;717.10;1484.80;;;;;;5032920;28;20088;-63
2021/06/20 08:38:27;;;;;;;11.90;6.63;;;717.20;1459.20;;;;;;5033461;28;20108;-62
2021/06/20 08:40:57;;;;;;;12.30;8.88;;;;;;;;;;5033498;28;20113;-62
2021/06/20 08:43:23;;;;;;;12.80;10.10;;;;;;;;;;5032695;28;20052;-62
2021/06/20 08:45:53;;;;;;;11.07;7.68;;;;;;;;;;5033507;28;20562;-62
2021/06/20 08:48:19;;;;;;;12.25;8.23;;;;;;;;;;5032659;28;20029;-62
2021/06/20 08:50:45;;;;;;;11.38;6.95;;;;;;;;;;5033506;28;20068;-62
2021/06/20 08:53:16;;;;;;;11.85;7.78;;;;;;;;;;5031204;28;20408;-62
2021/06/20 08:55:42;;;;;;;9.13;7.95;;;;;;;;;;5033389;28;20030;-63
2021/06/20 08:58:17;;;;;;;12.23;7.35;;;;;;;;;;5032211;28;20032;-64
2021/06/20 09:00:43;;;;;;;9.95;6.80;;;;;;;;;;5020612;28;20033;-61
2021/06/20 09:03:09;;;;;;;9.55;6.40;;;;;;;;;;5029789;28;20021;-63
2021/06/20 09:05:35;;;;;;;9.27;6.45;;;;;;;;;;5029620;28;20054;-62
2021/06/20 09:08:01;;;;;;;9.43;6.75;;;;;;;;;;5029654;28;20025;-65
2021/06/20 09:10:31;;;;;;;14.32;7.70;;;;;;;;;;5022345;28;20076;-63
2021/06/20 09:12:58;;;;;;;12.02;6.68;;;;;;;;;;5026137;28;20018;-60
2021/06/20 09:15:25;;;;;;;9.32;5.97;;;;;;;;;;5023228;28;20103;-64
2021/06/20 09:17:52;;;;;;;6.30;5.63;;;;;;;;;;5025931;28;20071;-63
2021/06/20 09:20:19;;;;;;;9.32;6.70;;;;;;;;;;5026851;28;20024;-59
2021/06/20 09:22:54;;;;;;;10.07;7.45;;;;;;;;;;5032446;28;20472;-61
2021/06/20 09:25:24;;;;;;;11.35;6.22;;;;;;;;;;5032026;28;20025;-61
2021/06/20 09:27:57;;;;;;;6.47;5.80;;;;;;;;;;5032736;28;20029;-60
2021/06/20 09:30:24;;;;;;;7.95;6.38;;;742.90;1356.80;;;;;;5029472;28;20018;-64
2021/06/20 09:32:58;;;;;;;8.50;6.70;;;742.90;1305.60;;;;;;5031079;28;20017;-62
2021/06/20 09:35:26;;;;;;;7.10;6.30;;;742.80;1305.60;;;;;;5032052;28;20034;-60
2021/06/20 09:37:56;;;;;;;7.28;6.20;;;743.00;1254.40;;;;;;5021328;28;20051;-62
2021/06/20 09:40:26;;;;;;;8.57;5.80;;;742.90;1280.00;;;;;;5017649;28;20164;-61
2021/06/20 09:42:52;;;;;;;7.22;5.22;;;742.90;1228.80;;;;;;5021080;28;20108;-63
2021/06/20 09:45:29;;;;;;;7.35;5.60;;;742.90;1280.00;;;;;;5022864;28;20519;-62
2021/06/20 09:47:56;;;;;;;7.82;5.20;;;743.00;1305.60;;;;;;5026849;28;20403;-62
2021/06/20 09:50:38;;;;;;;6.72;5.60;;;743.00;1280.00;;;;;;5023872;28;20159;-61
2021/06/20 09:53:05;;;;;;;9.90;7.72;;;743.00;1280.00;;;;;;5029893;28;20057;-59
2021/06/20 09:55:32;;;;;;;8.93;6.38;;;768.10;1228.80;;;;;;5025323;28;20041;-65
2021/06/20 09:58:00;;;;;;;6.22;4.97;;;;;;;;;;5028450;28;20029;-63
2021/06/20 10:00:26;;;;;;;14.25;6.82;;;;;;;;;;5023085;28;20495;-64
2021/06/20 10:02:52;;;;;;;15.65;6.50;;;;;;;;;;5027618;28;20377;-63
2021/06/20 10:05:18;;;;;;;14.77;6.25;;;;;;;;;;5023364;28;20025;-63
2021/06/20 10:07:44;;;;;;;10.48;5.70;;;;;;;;;;5025435;28;20014;-65
2021/06/20 10:10:11;;;;;;;7.10;4.40;;;;;;;;;;5025078;28;20044;-63
2021/06/20 10:12:37;;;;;;;6.25;5.00;;;;;;;;;;5023526;28;20075;-64
2021/06/20 10:15:04;;;;;;;7.43;4.60;;;;;;;;;;5026803;28;20103;-63
2021/06/20 10:17:34;;;;;;;8.00;4.50;;;;;;;;;;5021638;28;20030;-67
2021/06/20 10:20:02;;;;;;;5.23;4.40;;;;;;;;;;5026978;28;20479;-63
2021/06/20 10:22:35;;;;;;;8.93;5.47;;;;;;;;;;5023447;28;20036;-63
2021/06/20 10:25:02;;;;;;;8.98;5.57;;;;;;;;;;5037203;28;20433;-61
2021/06/20 10:27:29;;;;;;;7.30;5.28;;;;;;;;;;5028378;28;20018;-62
2021/06/20 10:29:56;;;;;;;6.22;5.38;;;;;;;;;;5032441;28;20479;-61
2021/06/20 10:32:23;;;;;;;25.50;18.15;;;;;;;;;;5032049;28;20038;-63
2021/06/20 10:34:53;;;;;;;46.90;30.30;;;;;;;;;;5021369;28;20032;-64
2021/06/20 10:37:20;;;;;;;27.45;19.48;;;;;;;;;;5032196;28;20375;-60
2021/06/20 10:39:47;;;;;;;49.28;33.58;;;;;;;;;;5018174;28;20030;-62
2021/06/20 10:42:13;;;;;;;42.92;26.63;;;;;;;;;;5031353;28;20053;-64
2021/06/20 10:44:50;;;;;;;33.38;21.15;;;;;;;;;;5030394;28;20032;-61
2021/06/20 10:47:46;;;;;;;41.30;24.33;;;;;;;;;;5031871;28;20036;-60
2021/06/20 10:50:17;;;;;;;23.92;13.85;;;;;;;;;;4989796;28;20046;-61
2021/06/20 10:52:54;;;;;;;49.65;31.90;;;;;;;;;;4989750;28;20117;-62
2021/06/20 10:55:21;;;;;;;38.10;23.98;;;;;;;;;;4989035;28;20038;-61
2021/06/20 10:57:51;;;;;;;44.00;27.90;;;;;;;;;;4989172;28;20061;-67
2021/06/20 11:00:36;;;;;;;77.68;49.90;;;;;;;;;;4972615;28;20058;-61
2021/06/20 11:03:35;;;;;;;58.00;39.03;;;;;;;;;;4987130;28;20038;-62
2021/06/20 11:06:17;;;;;;;63.10;42.40;;;;;;;;;;4911011;29;20076;-61
2021/06/20 11:08:54;;;;;;;79.53;50.42;;;;;;;;;;4909121;29;20094;-62
2021/06/20 11:11:23;;;;;;;68.53;43.88;;;;;;;;;;4911828;29;20107;-61
2021/06/20 11:14:00;;;;;;;60.45;39.10;;;;;;;;;;4900474;29;20033;-63
2021/06/20 11:16:26;;;;;;;29.45;20.17;;;;;;;;;;4900981;29;20606;-62
2021/06/20 11:19:07;;;;;;;34.50;23.45;;;;;;;;;;4901277;29;20052;-62
2021/06/20 11:21:34;;;;;;;20.95;15.13;;;;;;;;;;4903926;29;20115;-61
2021/06/20 11:24:01;;;;;;;18.15;13.13;;;;;;;;;;4905996;29;20060;-61
2021/06/20 11:26:27;;;;;;;9.77;6.50;;;;;;;;;;4922036;29;20043;-61
2021/06/20 11:29:04;;;;;;;9.20;6.18;;;;;;;;;;4951001;29;20442;-61
2021/06/20 11:31:30;;;;;;;13.02;9.13;;;;;;;;;;4951025;29;20028;-63
2021/06/20 11:33:57;;;;;;;9.05;7.07;;;;;;;;;;4950981;29;20035;-61
2021/06/20 11:36:25;;;;;;;9.93;6.78;;;;;;;;;;4950703;29;20121;-61
2021/06/20 11:38:51;;;;;;;7.60;5.75;;;;;;;;;;4950962;29;20046;-63
2021/06/20 11:41:18;;;;;;;6.22;5.57;;;;;;;;;;4980781;28;20456;-62
2021/06/20 11:43:53;;;;;;;6.78;4.43;;;;;;;;;;5031070;28;20024;-63
2021/06/20 11:46:21;;;;;;;5.30;4.38;;;;;;;;;;5031029;28;20044;-63
2021/06/20 11:48:59;;;;;;;5.88;3.95;;;;;;;;;;5031165;28;20105;-61
2021/06/20 11:51:36;;;;;;;5.28;4.75;;;;;;;;;;5031232;28;20029;-65
2021/06/20 11:54:09;;;;;;;5.93;4.70;;;;;;;;;;5033235;28;20056;-66
2021/06/20 11:56:35;;;;;;;4.70;3.60;;;;;;;;;;5034715;28;20440;-64
2021/06/20 11:59:01;;;;;;;5.78;4.20;;;;;;;;;;5034232;28;20033;-63
2021/06/20 12:01:41;;;;;;;5.30;4.28;;;;;;;;;;5034285;28;20018;-66
2021/06/20 12:04:07;;;;;;;4.88;4.30;;;;;;;;;;5034526;28;20079;-63
2021/06/20 12:06:34;;;;;;;8.63;3.63;;;;;;;;;;5034351;28;20506;-63
2021/06/20 12:09:00;;;;;;;4.10;3.70;;;;;;;;;;5032358;28;20022;-63
2021/06/20 12:11:30;;;;;;;5.95;4.32;;;;;;;;;;5032354;28;20026;-65
2021/06/20 12:13:56;;;;;;;5.47;4.93;;;;;;;;;;5030123;28;20073;-64
2021/06/20 12:16:22;;;;;;;6.80;5.05;;;;;;;;;;5032299;28;20496;-65
2021/06/20 12:18:48;;;;;;;4.47;3.97;;;;;;;;;;5030270;28;20069;-64
2021/06/20 12:21:30;;;;;;;7.65;4.85;;;;;;;;;;5025321;28;20030;-64
2021/06/20 12:24:00;;;;;;;7.10;5.22;;;;;;;;;;5025012;28;20387;-64
2021/06/20 12:26:31;;;;;;;7.40;5.47;;;;;;;;;;5015198;28;20026;-65
2021/06/20 12:28:57;;;;;;;7.00;6.13;;;;;;;;;;5027298;28;20297;-64
2021/06/20 12:31:24;;;;;;;7.55;6.65;;;;;;;;;;5034121;28;20171;-65
2021/06/20 12:34:01;;;;;;;7.55;5.10;;;;;;;;;;5023636;28;20026;-65
2021/06/20 12:36:28;;;;;;;6.72;4.57;;;;;;;;;;5019393;28;20543;-64
2021/06/20 12:38:54;;;;;;;11.93;8.07;;;;;;;;;;5017793;28;20121;-63
2021/06/20 12:41:25;;;;;;;8.05;4.90;;;;;;;;;;5021085;28;20021;-64
2021/06/20 12:43:51;;;;;;;;;;;;;;;;;;5018366;28;20349;-63
2021/06/20 12:46:17;;;;;;;8.80;6.03;;;;;;;;;;5020542;28;19920;-63
2021/06/20 12:48:43;;;;;;;9.23;7.35;;;;;;;;;;5017579;28;20452;-63
2021/06/20 12:51:11;;;;;;;8.70;7.63;;;;;;;;;;5019970;28;20030;-62
2021/06/20 12:53:38;;;;;;;8.93;7.15;;;;;;;;;;5021402;28;20472;-63
2021/06/20 12:56:06;;;;;;;10.85;5.50;;;;;;;;;;5021897;28;20026;-62
2021/06/20 12:58:32;;;;;;;9.57;7.22;;;;;;;;;;5016677;28;20022;-63
2021/06/20 13:01:07;;;;;;;10.38;7.00;;;;;;;;;;5015521;28;20022;-62
2021/06/20 13:03:34;;;;;;;11.55;8.68;;;;;;;;;;5028802;28;20018;-69
2021/06/20 13:06:10;;;;;;;11.73;10.40;;;;;;;;;;5015322;28;20113;-63
2021/06/20 13:08:36;;;;;;;8.00;7.20;;;;;;;;;;5027409;28;20369;-63
2021/06/20 13:11:02;;;;;;;8.98;7.45;;;;;;;;;;5029506;28;20113;-66
2021/06/20 13:13:28;;;;;;;9.27;6.75;;;;;;;;;;5032301;28;20089;-65
2021/06/20 13:15:55;;;;;;;7.85;6.13;;;;;;;;;;5032792;28;20141;-65
2021/06/20 13:18:21;;;;;;;8.93;5.57;;;;;;;;;;5030539;28;20104;-64
2021/06/20 13:20:47;;;;;;;6.53;5.82;;;;;;;;;;5029966;28;20029;-61
2021/06/20 13:23:13;;;;;;;11.85;6.32;;;;;;;;;;5032348;28;20044;-62
2021/06/20 13:25:40;;;;;;;7.68;4.80;;;;;;;;;;5028071;28;20014;-64
2021/06/20 13:28:06;;;;;;;6.47;4.93;;;;;;;;;;5028591;28;20479;-63
2021/06/20 13:30:32;;;;;;;5.13;4.60;;;;;;;;;;5033297;28;20025;-63
2021/06/20 13:32:58;;;;;;;6.63;5.32;;;;;;;;;;5031491;28;20029;-62
2021/06/20 13:35:26;;;;;;;5.45;4.30;;;;;;;;;;5029838;28;20047;-62
2021/06/20 13:37:52;;;;;;;8.98;5.45;;;;;;;;;;5028491;28;20030;-63
2021/06/20 13:40:19;;;;;;;8.43;5.20;;;;;;;;;;5031084;28;20029;-63
2021/06/20 13:42:47;;;;;;;4.70;4.20;;;;;;;;;;5031227;28;20017;-61
2021/06/20 13:45:15;;;;;;;7.22;5.13;;;;;;;;;;5017914;28;20034;-61
2021/06/20 13:47:41;;;;;;;6.53;5.82;;;;;;;;;;5021128;28;20529;-61
2021/06/20 13:50:08;;;;;;;25.08;15.48;;;;;;;;;;5018595;28;20026;-61
2021/06/20 13:52:34;;;;;;;55.13;36.35;;;;;;;;;;5019335;28;20108;-63
2021/06/20 13:55:04;;;;;;;34.60;23.10;;;;;;;;;;5020406;28;20022;-59
2021/06/20 13:57:30;;;;;;;31.98;21.90;;;;;;;;;;5018073;28;20038;-63
2021/06/20 13:59:56;;;;;;;35.28;23.55;;;;;;;;;;5021698;28;20087;-66
2021/06/20 14:02:22;;;;;;;11.02;7.10;;;;;;;;;;5017466;28;20380;-66
2021/06/20 14:04:49;;;;;;;18.13;14.07;;;;;;;;;;5021993;28;20155;-61